Hlavní strana
METAR-TAF:

METAR-TAF

Letiště :

Zadar, Chorvatsko

zeměpisná šířka: 44-06N, zeměpisná délka: 015-21E, výška: 82 m

Aktuální stav počasí

Zpráva byla vytvořena před 14 minutami, v 15:00 UTC
Východoseverovýchodní vítr 13 kt, proměnlivý mezi severoseverovýchodním a východojihovýchodním
Teplota 12°C
Vlhkost vzduchu 47%
Tlak 1018 hPa
Viditelnost 10 km a více
Skoro jasno ve výšce 5000 ft

METAR: LDZD 191500Z 07013KT 020V120 9999 FEW050 12/01 Q1018 TEMPO 06015G25KT

Čas: 16:14 (15:14 UTC)

Předpověď počasí

Zpráva byla vytvořena před 3 hodinami a 49 minutami, v 11:25 UTC
Předpověď platná od 19 v 12 UTC do 20 v 12 UTC
Východoseverovýchodní vítr 14 kt
Viditelnost 10 km a více
Polojasno ve výšce 4500 ft
Dočasný
od 19 v 12 UTC do 20 v 12 UTC
Východoseverovýchodní vítr 15 kt s nárazy do 25 kt

TAF: LDZD 191125Z 1912/2012 07014KT 9999 SCT045 TX13/2011Z TN06/2004Z TEMPO 1912/2012 06015G25KT

Stav a předpovědi počasí z více než 4 000 letišť (zprávy METAR a TAF).

Červené a žluté tečky na mapě představují dostupné meteorologické stanice.

Když kurzor umístíte na tečku, zobrazí se název stanice.

Pak kliknutím zobrazíte stav a předpověď počasí.

Chcete-li změnit mapu, kliknutím na zelené tlačítko se znaménkem +mapu přiblížíte, kliknutím na zelené tlačítko se znaménkem – mapu oddálíte a kliknutím na zelené šipky přejdete na sousední mapy.


METAR-TAF: